Bo Jerusalem, Puerto Rico
Current Conditions -  °F | °C
As of 1:53 AM on Saturday 25 Oct 2014 (Local Time) from TJNR Reporting Station
Few Clouds Few Clouds  
Wind Chill: 78°   Ceiling: Unl
Heat Index: 81°   Visibility: 10mi
Dew Point: 75°   Wind: 0mph
Humidity: 90%   Direction: NA
Pressure: 29.91"   Gusts: NA
Location:  18.3304°N, 65.6573°W
Report Text: TJNR 250553Z AUTO 00000KT 10SM FEW020 26/24 A2991 RMK AO2 SLP130 T02560239 10278 20256 58013 $
Loading
Personal Weather Stations






























Interactive Weather Map
Tropical Storm Tracking
New forecast layout! Learn more

10-Day Weather Forecast

Advertisements
Track Severe Weather on mobile